Time;durP1;ratioP1;P1;durP2;ratioP2;P2;SDS_P1;SDS_P2;PMS_P1;PMS_P2;Temp;Humidity;BMP_temperature;BMP_pressure;BME280_temperature;BME280_humidity;BME280_pressure;Samples;Min_cycle;Max_cycle;Signal;HPM_P1;HPM_P2
2021/06/24 00:01:06;;;;;;;5.37;2.30;;;;;;;;;;5012958;28;20037;-57
2021/06/24 00:03:34;;;;;;;5.67;1.80;;;;;;;;;;5013195;28;20109;-57
2021/06/24 00:06:01;;;;;;;4.00;2.07;;;;;;;;;;5013187;28;20026;-57
2021/06/24 00:08:28;;;;;;;5.50;2.23;;;;;;;;;;5013024;28;20026;-57
2021/06/24 00:10:55;;;;;;;5.83;2.47;;;;;;;;;;5013157;28;20030;-57
2021/06/24 00:13:23;;;;;;;4.83;2.73;;;;;;;;;;5012916;28;20109;-57
2021/06/24 00:15:50;;;;;;;4.40;1.90;;;;;;;;;;5012938;28;20473;-57
2021/06/24 00:18:17;;;;;;;2.80;1.70;;;;;;;;;;5012859;28;20030;-57
2021/06/24 00:20:44;;;;;;;3.80;2.27;;;;;;;;;;5012761;28;20034;-57
2021/06/24 00:23:12;;;;;;;9.53;2.30;;;;;;;;;;5013012;28;20022;-57
2021/06/24 00:25:38;;;;;;;5.30;3.30;;;;;;;;;;5012994;28;20026;-57
2021/06/24 00:28:05;;;;;;;5.47;3.27;;;;;;;;;;5012990;28;20022;-57
2021/06/24 00:30:35;;;;;;;10.23;3.33;;;;;;;;;;5012840;28;20026;-57
2021/06/24 00:33:02;;;;;;;10.90;2.77;;;;;;;;;;5012807;28;20014;-57
2021/06/24 00:35:28;;;;;;;5.13;2.63;;;;;;;;;;5012919;28;20030;-57
2021/06/24 00:37:55;;;;;;;4.73;2.93;;;;;;;;;;5012844;28;20523;-57
2021/06/24 00:40:23;;;;;;;7.17;2.43;;;;;;;;;;5012687;28;20389;-57
2021/06/24 00:42:51;;;;;;;8.30;2.77;;;;;;;;;;5012812;28;20481;-57
2021/06/24 00:45:18;;;;;;;6.20;3.17;;;;;;;;;;5013480;28;20050;-57
2021/06/24 00:47:45;;;;;;;4.40;2.53;;;;;;;;;;5012628;28;20021;-57
2021/06/24 00:50:12;;;;;;;4.07;2.53;;;;;;;;;;5012591;28;20045;-57
2021/06/24 00:52:39;;;;;;;5.87;2.40;;;;;;;;;;5012595;28;20069;-57
2021/06/24 00:55:06;;;;;;;7.20;2.77;;;;;;;;;;4995056;28;20520;-57
2021/06/24 00:57:33;;;;;;;6.50;2.37;;;;;;;;;;5012792;28;20088;-57
2021/06/24 01:00:00;;;;;;;10.03;2.10;;;;;;;;;;5012503;28;20038;-57
2021/06/24 01:02:26;;;;;;;6.20;2.67;;;;;;;;;;5012465;28;20042;-57
2021/06/24 01:04:53;;;;;;;4.23;3.03;;;;;;;;;;5012540;28;20133;-57
2021/06/24 01:07:20;;;;;;;11.13;2.90;;;;;;;;;;5012444;28;20100;-56
2021/06/24 01:09:47;;;;;;;9.77;2.80;;;;;;;;;;5012490;28;20495;-56
2021/06/24 01:12:14;;;;;;;6.20;2.70;;;;;;;;;;5012422;28;20030;-56
2021/06/24 01:14:40;;;;;;;7.83;2.83;;;;;;;;;;5014816;28;20344;-56
2021/06/24 01:17:07;;;;;;;4.03;2.50;;;;;;;;;;5016140;28;20473;-56
2021/06/24 01:19:34;;;;;;;6.03;2.40;;;;;;;;;;5015905;28;20089;-56
2021/06/24 01:22:01;;;;;;;6.10;2.07;;;;;;;;;;5015853;28;20432;-56
2021/06/24 01:24:28;;;;;;;5.23;2.40;;;;;;;;;;5015969;28;20033;-56
2021/06/24 01:26:55;;;;;;;3.57;2.33;;;;;;;;;;5015887;28;20032;-57
2021/06/24 01:29:22;;;;;;;3.67;2.30;;;;;;;;;;5015908;28;20029;-56
2021/06/24 01:31:49;;;;;;;8.73;2.53;;;;;;;;;;5015703;28;20025;-56
2021/06/24 01:34:16;;;;;;;5.23;2.57;;;;;;;;;;5015974;28;20109;-56
2021/06/24 01:36:43;;;;;;;6.17;2.33;;;;;;;;;;5015746;28;20022;-56
2021/06/24 01:39:11;;;;;;;5.97;2.50;;;;;;;;;;5015747;28;20026;-56
2021/06/24 01:41:38;;;;;;;9.23;2.50;;;;;;;;;;5015550;28;20044;-56
2021/06/24 01:44:05;;;;;;;3.20;2.10;;;;;;;;;;5016446;28;20077;-56
2021/06/24 01:46:32;;;;;;;5.73;2.03;;;;;;;;;;5015860;28;20465;-56
2021/06/24 01:48:59;;;;;;;4.57;2.17;;;;;;;;;;5015496;28;20026;-56
2021/06/24 01:51:26;;;;;;;13.73;2.73;;;;;;;;;;5015467;28;20022;-56
2021/06/24 01:53:53;;;;;;;4.30;1.90;;;;;;;;;;5015369;28;20067;-56
2021/06/24 01:56:20;;;;;;;3.47;2.10;;;;;;;;;;5015311;28;20030;-56
2021/06/24 01:58:47;;;;;;;7.13;2.17;;;;;;;;;;5015265;28;20092;-56
2021/06/24 02:01:14;;;;;;;6.77;2.60;;;;;;;;;;5015182;28;20034;-55
2021/06/24 02:03:41;;;;;;;8.57;2.87;;;;;;;;;;5015205;28;20026;-56
2021/06/24 02:06:08;;;;;;;7.93;2.80;;;;;;;;;;5015131;28;20022;-55
2021/06/24 02:08:38;;;;;;;10.00;3.17;;;;;;;;;;5015069;28;20022;-56
2021/06/24 02:11:05;;;;;;;5.80;2.57;;;;;;;;;;5015205;28;20026;-56
2021/06/24 02:13:32;;;;;;;4.77;2.40;;;;;;;;;;5014888;28;20030;-55
2021/06/24 02:15:59;;;;;;;6.63;2.30;;;;;;;;;;5015065;28;20026;-55
2021/06/24 02:18:26;;;;;;;13.73;3.87;;;;;;;;;;5014795;28;20029;-55
2021/06/24 02:20:52;;;;;;;4.87;2.43;;;;;;;;;;5014729;28;20046;-55
2021/06/24 02:23:19;;;;;;;5.47;2.80;;;;;;;;;;5014686;28;20054;-55
2021/06/24 02:25:46;;;;;;;3.93;2.63;;;;;;;;;;5014633;28;20540;-55
2021/06/24 02:28:13;;;;;;;7.80;3.33;;;;;;;;;;5014728;28;20358;-55
2021/06/24 02:30:40;;;;;;;5.57;2.50;;;;;;;;;;5014655;28;20100;-55
2021/06/24 02:33:08;;;;;;;4.07;2.40;;;;;;;;;;5014560;28;20477;-55
2021/06/24 02:35:35;;;;;;;3.40;2.20;;;;;;;;;;5014607;28;20127;-55
2021/06/24 02:38:06;;;;;;;3.20;1.97;;;;;;;;;;5014525;28;20057;-55
2021/06/24 02:40:38;;;;;;;5.27;2.33;;;;;;;;;;5014522;28;20036;-55
2021/06/24 02:43:15;;;;;;;4.03;2.27;;;;;;;;;;5014058;28;20026;-55
2021/06/24 02:45:51;;;;;;;5.60;2.50;;;;;;;;;;5013895;28;20054;-55
2021/06/24 02:48:27;;;;;;;6.50;2.10;;;;;;;;;;5014466;28;20025;-55
2021/06/24 02:51:08;;;;;;;5.93;3.63;;;;;;;;;;5014493;28;20021;-55
2021/06/24 02:53:39;;;;;;;7.33;3.43;;;;;;;;;;5012970;28;20041;-55
2021/06/24 02:59:03;;;;;;;7.43;2.80;;;;;;;;;;5003119;28;20480;-55
2021/06/24 03:01:33;;;;;;;7.60;2.60;;;;;;;;;;5014178;28;20042;-54
2021/06/24 03:04:04;;;;;;;4.20;2.40;;;;;;;;;;5013299;28;20125;-55
2021/06/24 03:06:41;;;;;;;5.60;2.90;;;;;;;;;;5013672;28;20393;-55
2021/06/24 03:09:15;;;;;;;14.40;7.77;;;;;;;;;;5009276;28;20034;-54
2021/06/24 03:11:48;;;;;;;13.90;6.90;;;;;;;;;;5013288;28;20058;-55
2021/06/24 03:14:21;;;;;;;7.37;4.17;;;;;;;;;;5013918;28;20384;-54
2021/06/24 03:16:59;;;;;;;5.23;2.77;;;;;;;;;;5013610;28;20030;-54
2021/06/24 03:19:32;;;;;;;5.70;2.90;;;;;;;;;;5013732;28;20057;-54
2021/06/24 03:22:10;;;;;;;6.17;3.00;;;;;;;;;;5013730;28;20037;-54
2021/06/24 03:24:37;;;;;;;4.93;2.93;;;;;;;;;;5013865;28;20377;-54
2021/06/24 03:27:04;;;;;;;3.90;2.53;;;;;;;;;;5013394;28;20053;-55
2021/06/24 03:29:30;;;;;;;3.93;2.60;;;;;;;;;;5013517;28;20030;-54
2021/06/24 03:31:57;;;;;;;5.97;2.93;;;;;;;;;;5013436;28;20026;-54
2021/06/24 03:34:24;;;;;;;4.07;2.40;;;;;;;;;;5013696;28;20567;-54
2021/06/24 03:36:59;;;;;;;7.13;3.40;;;;;;;;;;5012801;28;20079;-54
2021/06/24 03:39:26;;;;;;;6.00;2.50;;;;;;;;;;5013638;28;20025;-54
2021/06/24 03:41:53;;;;;;;18.70;4.87;;;;;;;;;;5013288;28;20568;-54
2021/06/24 03:44:33;;;;;;;9.30;2.77;;;;;;;;;;5014261;28;20076;-54
2021/06/24 03:47:00;;;;;;;4.37;2.80;;;;;;;;;;5013223;28;20034;-54
2021/06/24 03:49:27;;;;;;;6.47;3.30;;;;;;;;;;5013276;28;20030;-54
2021/06/24 03:51:53;;;;;;;7.87;3.57;;;;;;;;;;5013421;28;20026;-54
2021/06/24 03:54:20;;;;;;;6.27;4.20;;;;;;;;;;5013154;28;20057;-54
2021/06/24 03:56:47;;;;;;;5.27;3.23;;;;;;;;;;5013216;28;20033;-54
2021/06/24 03:59:14;;;;;;;6.97;3.60;;;;;;;;;;5013219;28;20105;-54
2021/06/24 04:01:43;;;;;;;6.17;3.20;;;;;;;;;;5013105;28;20045;-54
2021/06/24 04:04:11;;;;;;;7.40;3.83;;;;;;;;;;5013136;28;20437;-55
2021/06/24 04:06:38;;;;;;;5.53;3.87;;;;;;;;;;5013131;28;20029;-55
2021/06/24 04:09:09;;;;;;;7.27;3.60;;;;;;;;;;4995531;28;20033;-55
2021/06/24 04:11:36;;;;;;;5.87;3.53;;;;;;;;;;5013041;28;20026;-55
2021/06/24 04:14:02;;;;;;;7.67;3.67;;;;;;;;;;5013062;28;20546;-54
2021/06/24 04:16:29;;;;;;;6.40;3.27;;;;;;;;;;5012900;28;20105;-55
2021/06/24 04:18:56;;;;;;;5.03;3.13;;;;;;;;;;5012876;28;20030;-54
2021/06/24 04:21:23;;;;;;;6.67;3.53;;;;;;;;;;5012721;28;20490;-55
2021/06/24 04:23:50;;;;;;;4.60;3.07;;;;;;;;;;5012715;28;20057;-54
2021/06/24 04:26:16;;;;;;;6.50;3.70;;;;;;;;;;5012880;28;20049;-54
2021/06/24 04:28:43;;;;;;;5.03;2.87;;;;;;;;;;5012880;28;20523;-54
2021/06/24 04:31:10;;;;;;;8.23;3.83;;;;;;;;;;5012969;28;20041;-54
2021/06/24 04:33:38;;;;;;;4.63;3.20;;;;;;;;;;5012872;28;20054;-54
2021/06/24 04:36:05;;;;;;;5.03;3.10;;;;;;;;;;4995224;28;20037;-54
2021/06/24 04:38:33;;;;;;;4.70;3.57;;;;;;;;;;5012805;28;20026;-54
2021/06/24 04:41:01;;;;;;;7.07;3.70;;;;;;;;;;5012642;28;20117;-54
2021/06/24 04:43:28;;;;;;;5.83;3.60;;;;;;;;;;5012781;28;20026;-54
2021/06/24 04:45:55;;;;;;;5.33;3.70;;;;;;;;;;5013568;28;20461;-54
2021/06/24 04:48:22;;;;;;;4.83;3.57;;;;;;;;;;5013036;28;20116;-54
2021/06/24 04:50:49;;;;;;;7.83;3.80;;;;;;;;;;5016546;28;20039;-52
2021/06/24 04:53:16;;;;;;;5.97;3.57;;;;;;;;;;5016528;28;20372;-52
2021/06/24 04:55:42;;;;;;;9.40;4.00;;;;;;;;;;5016424;28;20500;-52
2021/06/24 04:58:09;;;;;;;8.03;4.00;;;;;;;;;;5016283;28;20384;-52
2021/06/24 05:00:37;;;;;;;5.80;3.97;;;;;;;;;;5016666;28;20112;-52
2021/06/24 05:03:04;;;;;;;6.13;3.37;;;;;;;;;;5016413;28;20018;-52
2021/06/24 05:05:31;;;;;;;7.80;3.90;;;;;;;;;;5016309;28;20030;-52
2021/06/24 05:07:59;;;;;;;6.43;4.03;;;;;;;;;;5016328;28;20120;-52
2021/06/24 05:10:26;;;;;;;5.17;3.83;;;;;;;;;;5016217;28;20033;-52
2021/06/24 05:12:53;;;;;;;9.10;3.70;;;;;;;;;;5016223;28;20108;-51
2021/06/24 05:15:20;;;;;;;7.20;4.07;;;;;;;;;;5016152;28;20034;-52
2021/06/24 05:17:47;;;;;;;6.50;3.50;;;;;;;;;;5016062;28;20014;-52
2021/06/24 05:20:14;;;;;;;5.07;3.40;;;;;;;;;;5016090;28;20018;-51
2021/06/24 05:22:41;;;;;;;13.30;4.17;;;;;;;;;;5015976;28;20105;-52
2021/06/24 05:25:10;;;;;;;5.17;3.47;;;;;;;;;;5016094;28;20025;-52
2021/06/24 05:27:37;;;;;;;4.07;3.07;;;;;;;;;;5015815;28;20032;-51
2021/06/24 05:30:05;;;;;;;6.60;3.57;;;;;;;;;;5015896;28;20095;-52
2021/06/24 05:32:32;;;;;;;7.23;3.90;;;;;;;;;;5015743;28;20032;-52
2021/06/24 05:35:00;;;;;;;7.17;4.97;;;;;;;;;;5015694;28;20033;-51
2021/06/24 05:37:27;;;;;;;7.03;3.30;;;;;;;;;;5015712;28;20038;-54
2021/06/24 05:39:54;;;;;;;6.80;3.90;;;;;;;;;;5015633;28;20033;-54
2021/06/24 05:42:21;;;;;;;6.80;3.80;;;;;;;;;;5015684;28;20030;-54
2021/06/24 05:44:48;;;;;;;6.27;4.30;;;;;;;;;;5016445;28;20050;-54
2021/06/24 05:47:15;;;;;;;10.40;3.97;;;;;;;;;;5015517;28;20040;-54
2021/06/24 05:49:42;;;;;;;7.73;3.80;;;;;;;;;;5015603;28;20018;-54
2021/06/24 05:52:09;;;;;;;7.93;4.20;;;;;;;;;;5015393;28;20037;-54
2021/06/24 05:54:36;;;;;;;12.57;4.10;;;;;;;;;;5015381;28;20026;-54
2021/06/24 05:57:02;;;;;;;9.20;3.90;;;;;;;;;;5015304;28;20040;-54
2021/06/24 05:59:29;;;;;;;8.30;4.33;;;;;;;;;;5014956;28;20029;-54
2021/06/24 06:01:56;;;;;;;8.50;3.40;;;;;;;;;;5015171;28;20046;-54
2021/06/24 06:04:23;;;;;;;5.93;3.60;;;;;;;;;;5015246;28;20018;-54
2021/06/24 06:06:50;;;;;;;7.60;3.77;;;;;;;;;;5015208;28;20397;-54
2021/06/24 06:09:16;;;;;;;11.33;3.73;;;;;;;;;;5015010;28;20537;-54
2021/06/24 06:11:44;;;;;;;7.50;4.33;;;;;;;;;;5015039;28;20052;-54
2021/06/24 06:14:11;;;;;;;6.70;4.10;;;;;;;;;;5015130;28;20076;-54
2021/06/24 06:16:39;;;;;;;13.00;3.83;;;;;;;;;;5015032;28;20109;-54
2021/06/24 06:19:06;;;;;;;6.33;4.03;;;;;;;;;;5014845;28;20033;-54
2021/06/24 06:21:33;;;;;;;7.63;3.97;;;;;;;;;;5014701;28;20048;-54
2021/06/24 06:24:01;;;;;;;4.47;3.60;;;;;;;;;;5014818;28;20112;-54
2021/06/24 06:26:28;;;;;;;5.37;3.33;;;;;;;;;;5014866;28;20022;-54
2021/06/24 06:28:55;;;;;;;4.60;3.50;;;;;;;;;;5014996;28;20030;-54
2021/06/24 06:31:24;;;;;;;5.57;3.57;;;;;;;;;;5014808;28;20072;-54
2021/06/24 06:33:51;;;;;;;6.03;3.70;;;;;;;;;;5014614;28;20029;-54
2021/06/24 06:36:18;;;;;;;5.77;3.63;;;;;;;;;;5014955;28;20033;-54
2021/06/24 06:38:45;;;;;;;4.47;3.33;;;;;;;;;;5014672;28;20046;-54
2021/06/24 06:41:11;;;;;;;6.53;3.83;;;;;;;;;;5014477;28;20038;-54
2021/06/24 06:43:38;;;;;;;5.20;3.20;;;;;;;;;;5014677;28;20032;-54
2021/06/24 06:46:05;;;;;;;8.43;3.87;;;;;;;;;;5015223;28;20049;-54
2021/06/24 06:48:32;;;;;;;6.53;3.17;;;;;;;;;;5014499;28;20423;-54
2021/06/24 06:50:59;;;;;;;8.37;3.70;;;;;;;;;;5014384;28;20496;-54
2021/06/24 06:53:26;;;;;;;5.90;3.73;;;;;;;;;;5014251;28;20493;-54
2021/06/24 06:55:52;;;;;;;5.90;3.63;;;;;;;;;;5014226;28;20489;-54
2021/06/24 06:58:19;;;;;;;5.23;3.60;;;;;;;;;;5014255;28;20021;-54
2021/06/24 07:00:46;;;;;;;5.00;3.30;;;;;;;;;;4996155;28;20064;-54
2021/06/24 07:03:14;;;;;;;7.43;4.17;;;;;;;;;;5013601;28;20026;-54
2021/06/24 07:05:41;;;;;;;4.97;3.40;;;;;;;;;;5013746;28;20065;-54
2021/06/24 07:08:08;;;;;;;5.73;3.20;;;;;;;;;;5014038;28;20029;-54
2021/06/24 07:10:35;;;;;;;8.43;3.37;;;;;;;;;;5013706;28;20026;-54
2021/06/24 07:13:02;;;;;;;6.13;3.77;;;;;;;;;;5013340;28;20026;-54
2021/06/24 07:15:29;;;;;;;5.27;3.60;;;;;;;;;;5013883;28;20101;-54
2021/06/24 07:17:55;;;;;;;7.60;3.10;;;;;;;;;;5013916;28;20026;-54
2021/06/24 07:20:22;;;;;;;7.77;3.93;;;;;;;;;;5013809;28;20054;-54
2021/06/24 07:22:49;;;;;;;6.00;3.40;;;;;;;;;;5013759;28;20022;-54
2021/06/24 07:25:19;;;;;;;7.03;3.00;;;;;;;;;;5013735;28;20045;-52
2021/06/24 07:27:46;;;;;;;5.03;3.57;;;;;;;;;;5013793;28;20025;-52
2021/06/24 07:30:13;;;;;;;9.03;3.37;;;;;;;;;;5013607;28;20053;-52
2021/06/24 07:32:40;;;;;;;6.37;3.83;;;;;;;;;;5013599;28;20105;-51
2021/06/24 07:35:07;;;;;;;7.17;3.13;;;;;;;;;;5013941;28;20137;-52
2021/06/24 07:37:34;;;;;;;11.30;3.73;;;;;;;;;;5013480;28;20025;-51
2021/06/24 07:40:01;;;;;;;10.13;3.63;;;;;;;;;;5013538;28;20029;-51
2021/06/24 07:42:27;;;;;;;10.03;3.27;;;;;;;;;;5013430;28;20033;-52
2021/06/24 07:44:54;;;;;;;9.83;3.40;;;;;;;;;;5014165;28;20038;-51
2021/06/24 07:47:21;;;;;;;5.93;3.90;;;;;;;;;;5013336;28;20038;-52
2021/06/24 07:49:48;;;;;;;7.60;3.03;;;;;;;;;;5013344;28;20109;-52
2021/06/24 07:52:15;;;;;;;7.63;3.10;;;;;;;;;;5013244;28;20026;-52
2021/06/24 07:54:42;;;;;;;9.23;3.43;;;;;;;;;;5013232;28;20489;-51
2021/06/24 07:57:08;;;;;;;10.57;3.97;;;;;;;;;;5013189;28;20041;-52
2021/06/24 07:59:37;;;;;;;7.20;3.20;;;;;;;;;;5013263;28;20052;-51
2021/06/24 08:02:10;;;;;;;8.83;3.33;;;;;;;;;;5013002;28;20045;-51
2021/06/24 08:04:36;;;;;;;6.07;3.63;;;;;;;;;;5013322;28;20026;-52
2021/06/24 08:07:03;;;;;;;7.27;3.50;;;;;;;;;;4995533;28;20022;-51
2021/06/24 08:09:30;;;;;;;13.13;3.53;;;;;;;;;;5013094;28;20030;-54
2021/06/24 08:11:57;;;;;;;7.30;3.57;;;;;;;;;;5013082;28;20080;-54
2021/06/24 08:14:24;;;;;;;6.60;2.87;;;;;;;;;;5013072;28;20014;-54
2021/06/24 08:16:51;;;;;;;7.80;3.60;;;;;;;;;;5013147;28;20026;-54
2021/06/24 08:19:18;;;;;;;7.90;3.17;;;;;;;;;;5012893;28;20021;-54
2021/06/24 08:21:45;;;;;;;5.83;3.00;;;;;;;;;;5012902;28;20052;-54
2021/06/24 08:24:11;;;;;;;6.83;2.80;;;;;;;;;;5018949;28;20049;-54
2021/06/24 08:26:38;;;;;;;9.17;3.23;;;;;;;;;;5019428;28;20088;-54
2021/06/24 08:29:05;;;;;;;4.13;2.70;;;;;;;;;;5019499;28;20358;-54
2021/06/24 08:31:31;;;;;;;5.47;2.77;;;;;;;;;;5019330;28;20422;-54
2021/06/24 08:33:59;;;;;;;9.83;3.23;;;;;;;;;;5019470;28;20022;-51
2021/06/24 08:36:26;;;;;;;8.07;3.03;;;;;;;;;;5019391;28;20056;-51
2021/06/24 08:38:52;;;;;;;5.67;3.13;;;;;;;;;;5019254;28;20489;-52
2021/06/24 08:41:20;;;;;;;5.00;3.10;;;;;;;;;;5019331;28;20037;-51
2021/06/24 08:43:48;;;;;;;9.30;3.57;;;;;;;;;;5019371;28;20555;-52
2021/06/24 08:46:16;;;;;;;8.83;3.17;;;;;;;;;;5020061;28;20413;-54
2021/06/24 08:48:43;;;;;;;4.70;2.90;;;;;;;;;;5019358;28;20037;-54
2021/06/24 08:51:09;;;;;;;8.40;3.07;;;;;;;;;;5019188;28;20054;-54
2021/06/24 08:53:36;;;;;;;6.10;3.20;;;;;;;;;;5019381;28;20389;-54
2021/06/24 08:56:04;;;;;;;7.43;2.80;;;;;;;;;;5019197;28;20037;-54
2021/06/24 08:58:31;;;;;;;4.90;3.17;;;;;;;;;;5019264;28;20108;-54
2021/06/24 09:00:57;;;;;;;4.83;2.80;;;;;;;;;;5019071;28;20041;-53
2021/06/24 09:03:37;;;;;;;8.63;2.70;;;;;;;;;;5019017;28;20481;-54
2021/06/24 09:06:08;;;;;;;5.27;2.87;;;;;;;;;;5019134;28;20113;-54
2021/06/24 09:08:39;;;;;;;3.73;2.87;;;;;;;;;;5019048;28;20080;-54
2021/06/24 09:11:09;;;;;;;4.17;2.70;;;;;;;;;;5018822;28;20393;-54
2021/06/24 09:13:35;;;;;;;4.40;2.50;;;;;;;;;;5019088;28;20101;-54
2021/06/24 09:16:34;;;;;;;3.87;2.60;;;;;;;;;;5019048;28;20054;-54
2021/06/24 09:19:19;;;;;;;4.67;2.50;;;;;;;;;;4975837;28;20392;-54
2021/06/24 09:21:56;;;;;;;8.15;2.72;;;;;;;;;;5018790;28;20038;-54
2021/06/24 09:24:23;;;;;;;4.47;3.27;;;;;;;;;;5018952;28;20381;-54
2021/06/24 09:26:50;;;;;;;5.27;2.93;;;;;;;;;;5018866;28;20477;-54
2021/06/24 09:29:18;;;;;;;5.13;2.73;;;;;;;;;;5018913;28;20032;-54
2021/06/24 09:31:45;;;;;;;6.77;3.30;;;;;;;;;;5018861;28;20029;-54
2021/06/24 09:34:13;;;;;;;3.73;2.30;;;;;;;;;;5017301;28;20109;-54
2021/06/24 09:36:43;;;;;;;7.03;3.00;;;;;;;;;;5015736;28;20034;-54
2021/06/24 09:39:12;;;;;;;4.77;3.13;;;;;;;;;;5015684;28;20385;-54
2021/06/24 09:41:55;;;;;;;2.90;2.17;;;;;;;;;;5015776;28;20038;-54
2021/06/24 09:44:24;;;;;;;6.67;2.80;;;;;;;;;;5016705;28;20018;-54
2021/06/24 09:46:51;;;;;;;5.57;2.67;;;;;;;;;;4995989;28;20524;-54
2021/06/24 09:49:28;;;;;;;9.60;3.23;;;;;;;;;;4995828;28;20389;-55
2021/06/24 09:51:56;;;;;;;9.83;2.43;;;;;;;;;;4995899;28;20022;-54
2021/06/24 09:54:30;;;;;;;5.77;3.00;;;;;;;;;;4995827;28;20031;-54
2021/06/24 09:56:58;;;;;;;4.70;2.83;;;;;;;;;;4995839;28;20076;-54
2021/06/24 09:59:32;;;;;;;6.23;3.13;;;;;;;;;;4995707;28;20026;-54
2021/06/24 10:02:05;;;;;;;12.13;4.32;;;;;;;;;;4995539;28;20448;-54
2021/06/24 10:04:32;;;;;;;5.70;3.17;;;;;;;;;;4995707;28;20109;-54
2021/06/24 10:07:08;;;;;;;7.53;3.73;;;;;;;;;;4995614;28;20030;-54
2021/06/24 10:09:35;;;;;;;3.87;2.63;;;;;;;;;;4995482;28;20146;-54
2021/06/24 10:12:01;;;;;;;6.83;2.77;;;;;;;;;;4995446;28;20041;-54
2021/06/24 10:14:29;;;;;;;4.50;2.80;;;;;;;;;;4995555;28;20031;-54
2021/06/24 10:16:59;;;;;;;7.60;2.70;;;;;;;;;;4995466;28;20119;-54
2021/06/24 10:19:28;;;;;;;4.83;2.53;;;;;;;;;;4995515;28;20026;-54
2021/06/24 10:22:04;;;;;;;9.53;2.60;;;;;;;;;;4995191;28;20101;-54
2021/06/24 10:24:35;;;;;;;3.90;2.30;;;;;;;;;;4977880;28;20484;-54
2021/06/24 10:27:05;;;;;;;4.40;2.90;;;;;;;;;;4995407;28;20023;-54
2021/06/24 10:29:40;;;;;;;4.07;2.73;;;;;;;;;;4995335;28;20030;-54
2021/06/24 10:32:22;;;;;;;6.78;2.75;;;;;;;;;;4995238;28;20026;-54
2021/06/24 10:34:50;;;;;;;6.87;3.30;;;;;;;;;;4995194;28;20081;-54
2021/06/24 10:37:24;;;;;;;5.43;2.90;;;;;;;;;;4995364;28;20110;-54
2021/06/24 10:39:55;;;;;;;6.78;2.50;;;;;;;;;;4994972;28;20026;-54
2021/06/24 10:42:23;;;;;;;4.30;2.90;;;;;;;;;;4994996;28;20030;-54
2021/06/24 10:44:56;;;;;;;7.13;2.67;;;;;;;;;;4998965;28;20038;-54
2021/06/24 10:47:30;;;;;;;5.43;2.40;;;;;;;;;;5013309;28;20033;-54
2021/06/24 10:50:16;;;;;;;7.30;2.35;;;;;;;;;;5014387;28;20034;-54
2021/06/24 10:52:43;;;;;;;4.17;2.50;;;;;;;;;;5014386;28;20428;-54
2021/06/24 10:55:30;;;;;;;3.27;1.97;;;;;;;;;;5014290;28;20064;-54
2021/06/24 10:57:56;;;;;;;4.87;2.57;;;;;;;;;;5014242;28;20441;-54
2021/06/24 11:00:32;;;;;;;5.70;2.40;;;;;;;;;;5014253;28;20069;-54
2021/06/24 11:03:00;;;;;;;5.27;2.63;;;;;;;;;;5014139;28;20034;-53
2021/06/24 11:05:36;;;;;;;8.37;2.40;;;;;;;;;;5014215;28;20081;-54
2021/06/24 11:08:12;;;;;;;4.87;2.27;;;;;;;;;;5014185;28;20030;-54
2021/06/24 11:10:56;;;;;;;4.33;2.27;;;;;;;;;;5014068;28;20018;-54
2021/06/24 11:13:41;;;;;;;8.17;2.33;;;;;;;;;;4996457;28;20112;-54
2021/06/24 11:16:09;;;;;;;4.72;2.28;;;;;;;;;;5013957;28;20030;-54
2021/06/24 11:18:36;;;;;;;4.93;2.17;;;;;;;;;;5013724;28;20113;-54
2021/06/24 11:21:08;;;;;;;3.93;2.23;;;;;;;;;;5013818;28;20042;-54
2021/06/24 11:23:37;;;;;;;8.00;2.50;;;;;;;;;;5013805;28;20072;-51
2021/06/24 11:26:04;;;;;;;5.43;2.50;;;;;;;;;;5013740;28;20041;-51
2021/06/24 11:28:57;;;;;;;4.20;2.33;;;;;;;;;;5013795;28;20065;-51
2021/06/24 11:31:39;;;;;;;4.20;2.33;;;;;;;;;;5013743;28;20221;-52
2021/06/24 11:36:59;;;;;;;5.10;2.50;;;;;;;;;;5013967;28;20037;-52
2021/06/24 11:39:36;;;;;;;8.23;2.73;;;;;;;;;;5013628;28;20461;-52
2021/06/24 11:42:09;;;;;;;6.57;2.63;;;;;;;;;;5013083;28;20128;-51
2021/06/24 11:44:46;;;;;;;9.57;3.30;;;;;;;;;;5014535;28;20025;-51
2021/06/24 11:47:17;;;;;;;9.30;2.83;;;;;;;;;;5013376;28;20045;-51
2021/06/24 12:03:54;;;;;;;3.70;2.70;;;;;;;;;;5013364;28;20018;-52
2021/06/24 12:06:21;;;;;;;6.83;2.50;;;;;;;;;;5013094;28;20026;-51
2021/06/24 12:08:59;;;;;;;4.33;2.77;;;;;;;;;;5013236;28;20354;-51
2021/06/24 12:11:35;;;;;;;10.10;2.50;;;;;;;;;;5013069;28;20021;-51
2021/06/24 12:14:15;;;;;;;5.93;2.70;;;;;;;;;;5012927;28;20057;-52
2021/06/24 12:16:42;;;;;;;5.07;2.40;;;;;;;;;;5012956;28;20026;-51
2021/06/24 12:19:09;;;;;;;3.17;2.37;;;;;;;;;;5012740;28;20033;-52
2021/06/24 12:21:36;;;;;;;5.90;2.47;;;;;;;;;;5012925;28;20045;-52
2021/06/24 12:24:03;;;;;;;7.10;2.53;;;;;;;;;;5013053;28;20022;-52
2021/06/24 12:26:29;;;;;;;8.10;3.40;;;;;;;;;;5012974;28;20149;-52
2021/06/24 12:29:03;;;;;;;6.43;2.90;;;;;;;;;;5012954;28;20108;-52
2021/06/24 12:31:32;;;;;;;7.50;2.97;;;;;;;;;;5013069;28;20104;-52
2021/06/24 12:34:06;;;;;;;7.43;2.57;;;;;;;;;;5012945;28;20428;-51
2021/06/24 12:36:34;;;;;;;7.47;2.90;;;;;;;;;;5012741;28;20034;-51
2021/06/24 12:39:01;;;;;;;7.27;2.87;;;;;;;;;;5012618;28;20029;-52
2021/06/24 12:41:29;;;;;;;9.70;3.87;;;;;;;;;;5012684;28;20038;-51
2021/06/24 12:44:02;;;;;;;11.77;3.90;;;;;;;;;;5012713;28;20177;-52
2021/06/24 12:46:33;;;;;;;5.27;3.00;;;;;;;;;;5013423;28;20049;-51
2021/06/24 12:49:04;;;;;;;9.73;3.27;;;;;;;;;;5012949;28;20022;-52
2021/06/24 12:51:31;;;;;;;4.20;2.77;;;;;;;;;;4995080;28;20485;-52
2021/06/24 12:53:58;;;;;;;8.30;3.97;;;;;;;;;;5012607;28;20385;-52
2021/06/24 12:56:31;;;;;;;9.53;6.40;;;;;;;;;;5012581;28;20030;-51
2021/06/24 12:59:08;;;;;;;23.57;7.10;;;;;;;;;;5012594;28;20025;-52
2021/06/24 13:01:39;;;;;;;8.13;3.90;;;;;;;;;;5012580;28;20552;-54
2021/06/24 13:04:16;;;;;;;4.63;2.80;;;;;;;;;;5012611;28;20022;-54
2021/06/24 13:06:44;;;;;;;12.13;3.73;;;;;;;;;;5012498;28;20029;-54
2021/06/24 13:09:14;;;;;;;5.77;3.50;;;;;;;;;;5012594;28;20081;-54
2021/06/24 13:11:45;;;;;;;7.47;3.37;;;;;;;;;;5016120;28;20057;-54
2021/06/24 13:14:17;;;;;;;6.97;3.80;;;;;;;;;;5016176;28;20030;-54
2021/06/24 13:16:52;;;;;;;8.03;4.43;;;;;;;;;;5016044;28;20022;-54
2021/06/24 13:19:32;;;;;;;7.27;4.97;;;;;;;;;;5015990;28;20034;-54
2021/06/24 13:22:00;;;;;;;7.30;4.40;;;;;;;;;;5015961;28;20450;-54
2021/06/24 13:24:47;;;;;;;10.87;4.00;;;;;;;;;;5015981;28;20109;-54
2021/06/24 13:27:15;;;;;;;7.57;4.10;;;;;;;;;;5015795;28;20504;-54
2021/06/24 13:29:53;;;;;;;7.97;4.10;;;;;;;;;;5015935;28;20021;-54
2021/06/24 13:32:29;;;;;;;10.37;4.03;;;;;;;;;;5015859;28;20073;-54
2021/06/24 13:34:56;;;;;;;8.27;4.60;;;;;;;;;;5015806;28;20369;-54
2021/06/24 13:37:23;;;;;;;7.87;3.93;;;;;;;;;;5015864;28;20022;-54
2021/06/24 13:39:50;;;;;;;4.93;4.17;;;;;;;;;;5015576;28;20061;-54
2021/06/24 13:42:18;;;;;;;6.50;4.43;;;;;;;;;;5015577;28;20038;-54
2021/06/24 13:44:45;;;;;;;7.23;4.30;;;;;;;;;;5015835;28;20029;-54
2021/06/24 13:47:12;;;;;;;6.47;4.10;;;;;;;;;;5016301;28;20060;-54
2021/06/24 13:49:39;;;;;;;8.10;4.50;;;;;;;;;;5015830;28;20108;-54
2021/06/24 13:52:06;;;;;;;8.43;4.40;;;;;;;;;;5015339;28;20265;-54
2021/06/24 13:54:33;;;;;;;5.20;3.70;;;;;;;;;;5015495;28;20028;-54
2021/06/24 13:57:00;;;;;;;11.33;4.23;;;;;;;;;;5015363;28;20026;-54
2021/06/24 13:59:27;;;;;;;7.53;4.07;;;;;;;;;;5015352;28;20026;-54
2021/06/24 14:01:55;;;;;;;5.37;3.23;;;;;;;;;;5015202;28;20034;-54
2021/06/24 14:04:21;;;;;;;5.97;3.10;;;;;;;;;;5015230;28;20022;-54
2021/06/24 14:06:48;;;;;;;4.67;2.60;;;;;;;;;;5015364;28;20029;-54
2021/06/24 14:09:19;;;;;;;5.07;2.57;;;;;;;;;;5015417;28;20022;-55
2021/06/24 14:11:47;;;;;;;5.20;3.00;;;;;;;;;;5015073;28;20030;-54
2021/06/24 14:14:14;;;;;;;6.07;3.17;;;;;;;;;;5015142;28;20026;-55
2021/06/24 14:16:41;;;;;;;3.93;2.50;;;;;;;;;;5015022;28;20412;-54
2021/06/24 14:19:09;;;;;;;5.27;1.87;;;;;;;;;;5014824;28;20111;-54
2021/06/24 14:21:37;;;;;;;6.13;2.17;;;;;;;;;;5014561;28;20030;-55
2021/06/24 14:24:04;;;;;;;3.97;1.93;;;;;;;;;;5014869;28;20026;-55
2021/06/24 14:26:32;;;;;;;4.20;2.20;;;;;;;;;;5014846;28;20030;-55
2021/06/24 14:28:59;;;;;;;4.70;2.30;;;;;;;;;;5015092;28;20052;-55
2021/06/24 14:31:26;;;;;;;3.70;2.20;;;;;;;;;;5014800;28;20081;-54
2021/06/24 14:33:54;;;;;;;3.17;1.93;;;;;;;;;;5014736;28;20022;-55
2021/06/24 14:36:21;;;;;;;4.57;2.40;;;;;;;;;;5014678;28;20056;-55
2021/06/24 14:38:48;;;;;;;5.33;2.10;;;;;;;;;;5014860;28;20382;-55
2021/06/24 14:41:15;;;;;;;4.70;2.40;;;;;;;;;;5014389;28;20081;-55
2021/06/24 14:43:42;;;;;;;5.20;2.20;;;;;;;;;;5014613;28;20040;-55
2021/06/24 14:46:09;;;;;;;4.97;2.27;;;;;;;;;;5015304;28;20054;-55
2021/06/24 14:48:37;;;;;;;3.97;2.60;;;;;;;;;;5014388;28;20026;-55
2021/06/24 14:51:04;;;;;;;4.83;2.67;;;;;;;;;;5014638;28;20034;-55
2021/06/24 14:53:31;;;;;;;5.10;2.23;;;;;;;;;;5014282;28;20053;-55
2021/06/24 14:55:58;;;;;;;3.70;2.20;;;;;;;;;;5014314;28;20025;-54
2021/06/24 14:58:25;;;;;;;6.43;2.77;;;;;;;;;;5014219;28;20030;-54
2021/06/24 15:01:01;;;;;;;4.73;3.50;;;;;;;;;;5014129;28;20537;-55
2021/06/24 15:03:31;;;;;;;5.50;2.87;;;;;;;;;;5014238;28;20037;-55
2021/06/24 15:06:08;;;;;;;5.00;2.90;;;;;;;;;;5014027;28;20412;-55
2021/06/24 15:08:46;;;;;;;4.97;2.93;;;;;;;;;;5012963;28;20057;-55
2021/06/24 15:11:27;;;;;;;5.73;3.27;;;;;;;;;;5013706;28;20032;-55
2021/06/24 15:14:02;;;;;;;4.13;2.63;;;;;;;;;;5013678;28;20113;-56